Terminal Aerodrome Forecast
Issued by NWS

Home | Current Version | Previous Version | Text Only | Print | Product List | Glossary On
Versions: 1 2 3 4 5 6 7 8 9 10 11 12
447
FTUS42 KMLB 251729
TAFSUA
TAF
KSUA 251729Z 2518/2618 10010KT P6SM VCTS SCT040CB BKN120
     FM252100 12011KT P6SM FEW040 SCT100
     FM260100 15005KT P6SM FEW050 SCT250=

USA.gov is the U.S. government's official web portal to all federal, state and local government web resources and services.